Time;durP1;ratioP1;P1;durP2;ratioP2;P2;SDS_P1;SDS_P2;PMS_P1;PMS_P2;Temp;Humidity;BMP_temperature;BMP_pressure;BME280_temperature;BME280_humidity;BME280_pressure;Samples;Min_cycle;Max_cycle;Signal;HPM_P1;HPM_P2
2021/05/19 00:00:17;;;;;;;15.97;14.33;;;24.00;73.90;;;;;;3559481;40;20491;-51
2021/05/19 00:02:46;;;;;;;15.27;13.87;;;24.00;73.80;;;;;;3557739;40;20478;-51
2021/05/19 00:05:14;;;;;;;15.53;14.00;;;24.00;73.80;;;;;;3552194;40;20525;-48
2021/05/19 00:07:41;;;;;;;16.03;14.20;;;24.00;73.70;;;;;;3560544;40;20497;-49
2021/05/19 00:10:10;;;;;;;15.48;13.90;;;24.00;73.80;;;;;;3558619;40;20523;-49
2021/05/19 00:12:37;;;;;;;16.00;14.53;;;24.00;73.80;;;;;;3559296;40;20766;-49
2021/05/19 00:15:06;;;;;;;15.32;13.93;;;24.00;73.70;;;;;;3549837;40;20843;-48
2021/05/19 00:17:41;;;;;;;16.20;14.70;;;24.00;73.70;;;;;;3546719;40;20236;-49
2021/05/19 00:20:12;;;;;;;14.90;13.60;;;24.00;73.60;;;;;;3559418;40;20787;-48
2021/05/19 00:22:40;;;;;;;16.47;14.33;;;24.00;73.60;;;;;;3559463;40;20511;-48
2021/05/19 00:25:08;;;;;;;15.13;13.73;;;24.00;73.60;;;;;;3559218;40;20567;-49
2021/05/19 00:27:35;;;;;;;15.23;13.93;;;24.00;73.60;;;;;;3559010;40;20241;-49
2021/05/19 00:30:04;;;;;;;14.93;13.50;;;24.00;73.50;;;;;;3558933;40;20502;-48
2021/05/19 00:32:31;;;;;;;15.53;14.03;;;24.00;73.50;;;;;;3550941;40;20492;-48
2021/05/19 00:34:57;;;;;;;14.87;13.60;;;24.00;73.50;;;;;;3554465;40;20529;-48
2021/05/19 00:37:26;;;;;;;15.10;13.77;;;24.00;73.40;;;;;;3568532;40;20509;-52
2021/05/19 00:39:53;;;;;;;16.95;14.23;;;24.00;73.40;;;;;;3570058;40;20481;-49
2021/05/19 00:42:21;;;;;;;16.07;14.57;;;24.00;73.40;;;;;;3560833;40;20585;-52
2021/05/19 00:44:48;;;;;;;15.63;13.83;;;24.00;73.40;;;;;;3569325;40;20885;-52
2021/05/19 00:47:31;;;;;;;15.13;13.60;;;24.00;73.40;;;;;;3558804;40;20492;-52
2021/05/19 00:50:00;;;;;;;14.03;12.83;;;24.00;73.40;;;;;;3558947;40;20506;-50
2021/05/19 00:52:29;;;;;;;14.10;13.10;;;24.00;73.30;;;;;;3550387;40;20491;-49
2021/05/19 00:54:56;;;;;;;15.90;14.37;;;24.00;73.30;;;;;;3559662;40;20489;-49
2021/05/19 00:57:23;;;;;;;15.00;13.67;;;24.00;73.30;;;;;;3555719;40;20477;-49
2021/05/19 00:59:51;;;;;;;14.87;13.57;;;24.00;73.30;;;;;;3558737;40;21108;-48
2021/05/19 01:02:24;;;;;;;14.40;13.17;;;24.00;73.30;;;;;;3550714;40;20471;-50
2021/05/19 01:04:52;;;;;;;15.13;13.60;;;24.00;73.30;;;;;;3551455;40;20478;-48
2021/05/19 01:07:35;;;;;;;14.45;13.15;;;24.00;73.30;;;;;;3559516;40;21088;-51
2021/05/19 01:10:04;;;;;;;13.70;12.60;;;24.00;73.20;;;;;;3559803;40;20216;-48
2021/05/19 01:12:31;;;;;;;14.47;13.17;;;24.00;73.20;;;;;;3559711;40;20487;-48
2021/05/19 01:14:59;;;;;;;14.33;13.10;;;24.00;73.20;;;;;;3555353;40;20615;-48
2021/05/19 01:17:26;;;;;;;15.10;13.90;;;24.00;73.10;;;;;;3555086;40;20609;-48
2021/05/19 01:19:54;;;;;;;14.57;13.33;;;24.00;73.20;;;;;;3560371;40;20474;-49
2021/05/19 01:22:24;;;;;;;14.80;13.40;;;24.00;73.20;;;;;;3560656;40;20511;-49
2021/05/19 01:24:54;;;;;;;15.07;13.77;;;24.00;73.10;;;;;;3557362;40;20518;-49
2021/05/19 01:27:22;;;;;;;13.57;12.47;;;24.00;73.10;;;;;;3560289;40;20492;-48
2021/05/19 01:29:50;;;;;;;13.97;12.80;;;24.00;73.10;;;;;;3569994;40;20503;-48
2021/05/19 01:32:18;;;;;;;14.73;13.63;;;24.00;73.10;;;;;;3560241;40;20516;-49
2021/05/19 01:34:45;;;;;;;14.37;13.37;;;24.00;73.10;;;;;;3570608;40;20492;-49
2021/05/19 01:37:14;;;;;;;14.43;13.20;;;24.00;73.10;;;;;;3561115;40;20482;-49
2021/05/19 01:39:42;;;;;;;13.63;12.60;;;24.00;73.10;;;;;;3568381;40;20493;-49
2021/05/19 01:42:10;;;;;;;13.73;12.63;;;24.00;73.10;;;;;;3566989;40;20479;-49
2021/05/19 01:44:40;;;;;;;14.80;13.40;;;24.00;73.10;;;;;;3550865;40;20822;-48
2021/05/19 01:47:40;;;;;;;13.03;12.13;;;24.00;73.10;;;;;;3560208;40;20491;-48
2021/05/19 01:50:08;;;;;;;12.93;12.00;;;24.00;73.10;;;;;;3555213;40;20925;-48
2021/05/19 01:52:37;;;;;;;13.60;12.50;;;24.00;73.00;;;;;;3550061;40;20502;-48
2021/05/19 01:55:08;;;;;;;13.40;12.33;;;24.00;73.10;;;;;;3549253;40;20522;-48
2021/05/19 01:57:38;;;;;;;13.13;12.20;;;24.00;73.00;;;;;;3549502;40;21297;-48
2021/05/19 02:00:08;;;;;;;12.77;11.77;;;24.00;73.00;;;;;;3548929;40;20478;-49
2021/05/19 02:02:42;;;;;;;12.80;11.80;;;24.00;73.00;;;;;;3549652;40;20489;-48
2021/05/19 02:05:17;;;;;;;13.90;12.80;;;24.00;72.90;;;;;;3549554;40;20515;-48
2021/05/19 02:07:45;;;;;;;13.50;12.40;;;24.00;73.00;;;;;;3548167;40;20479;-48
2021/05/19 02:10:14;;;;;;;14.13;13.03;;;24.00;73.00;;;;;;3539997;40;20479;-48
2021/05/19 02:12:43;;;;;;;13.27;12.30;;;24.00;72.90;;;;;;3540521;40;20475;-48
2021/05/19 02:15:15;;;;;;;14.27;13.17;;;24.00;72.90;;;;;;3533041;40;20491;-48
2021/05/19 02:17:43;;;;;;;13.10;12.20;;;24.00;72.90;;;;;;3548396;40;20839;-49
2021/05/19 02:20:14;;;;;;;13.43;12.53;;;24.00;72.90;;;;;;3540093;40;20477;-48
2021/05/19 02:22:42;;;;;;;13.13;12.00;;;24.00;72.90;;;;;;3539806;40;21049;-48
2021/05/19 02:25:12;;;;;;;12.90;11.90;;;24.00;72.90;;;;;;3548465;40;20472;-48
2021/05/19 02:27:43;;;;;;;12.13;11.17;;;24.00;72.90;;;;;;3551119;40;20483;-48
2021/05/19 02:30:15;;;;;;;13.30;12.20;;;24.00;72.90;;;;;;3549554;40;20501;-49
2021/05/19 02:32:44;;;;;;;13.87;12.60;;;24.00;72.80;;;;;;3543854;40;20494;-48
2021/05/19 02:35:14;;;;;;;12.18;11.45;;;24.00;72.80;;;;;;3548190;40;20560;-49
2021/05/19 02:37:42;;;;;;;13.53;12.47;;;24.00;72.80;;;;;;3546736;40;20580;-48
2021/05/19 02:40:14;;;;;;;12.70;11.83;;;24.00;72.80;;;;;;3546268;40;20923;-47
2021/05/19 02:42:44;;;;;;;12.90;12.00;;;24.00;72.80;;;;;;3559988;40;20953;-48
2021/05/19 02:45:15;;;;;;;13.50;12.60;;;24.00;72.70;;;;;;3551773;40;20488;-49
2021/05/19 02:47:43;;;;;;;12.93;12.13;;;24.00;72.70;;;;;;3552469;40;20479;-48
2021/05/19 02:50:13;;;;;;;13.57;12.60;;;24.00;72.70;;;;;;3552158;40;20487;-48
2021/05/19 02:52:40;;;;;;;12.90;11.97;;;24.00;72.70;;;;;;3556482;40;20542;-47
2021/05/19 02:55:07;;;;;;;12.60;11.70;;;24.00;72.80;;;;;;3561492;40;20487;-48
2021/05/19 02:57:35;;;;;;;13.13;12.33;;;24.00;72.70;;;;;;3558837;40;20487;-48
2021/05/19 03:00:06;;;;;;;12.10;11.40;;;24.00;72.60;;;;;;3560811;40;20473;-48
2021/05/19 03:02:33;;;;;;;12.57;11.65;;;24.00;72.60;;;;;;3561219;40;20500;-48
2021/05/19 03:05:08;;;;;;;12.97;12.23;;;24.00;72.60;;;;;;3560976;40;20263;-49
2021/05/19 03:07:40;;;;;;;12.20;11.50;;;24.00;72.60;;;;;;3563571;40;20472;-48
2021/05/19 03:10:09;;;;;;;13.57;12.57;;;24.00;72.50;;;;;;3560433;40;21248;-48
2021/05/19 03:12:37;;;;;;;12.60;11.80;;;24.00;72.50;;;;;;3563901;40;20485;-48
2021/05/19 03:15:07;;;;;;;13.40;12.50;;;24.00;72.40;;;;;;3571010;40;20479;-48
2021/05/19 03:17:33;;;;;;;12.70;12.10;;;24.00;72.40;;;;;;3570381;40;20232;-49
2021/05/19 03:20:00;;;;;;;13.13;12.33;;;24.00;72.40;;;;;;3570871;40;20493;-48
2021/05/19 03:22:27;;;;;;;13.27;12.27;;;24.00;72.40;;;;;;3566113;40;20858;-48
2021/05/19 03:24:55;;;;;;;12.87;11.97;;;24.00;72.30;;;;;;3560163;40;20569;-48
2021/05/19 03:27:22;;;;;;;13.90;12.82;;;24.00;72.30;;;;;;3561007;40;20499;-49
2021/05/19 03:29:50;;;;;;;13.33;12.50;;;24.00;72.40;;;;;;3560562;40;20224;-48
2021/05/19 03:32:25;;;;;;;13.97;12.87;;;24.00;72.30;;;;;;3561883;40;20580;-48
2021/05/19 03:34:54;;;;;;;12.93;12.17;;;24.00;72.30;;;;;;3559708;40;20485;-49
2021/05/19 03:37:21;;;;;;;13.30;12.50;;;24.00;72.20;;;;;;3560315;40;20494;-49
2021/05/19 03:39:49;;;;;;;13.30;12.60;;;24.00;72.20;;;;;;3560759;40;20487;-49
2021/05/19 03:42:17;;;;;;;13.00;12.30;;;24.00;72.10;;;;;;3564800;40;20529;-48
2021/05/19 03:44:46;;;;;;;13.20;12.23;;;24.00;72.10;;;;;;3569771;40;20577;-48
2021/05/19 03:47:13;;;;;;;12.25;11.45;;;24.00;72.10;;;;;;3568524;40;20491;-49
2021/05/19 03:49:41;;;;;;;13.80;12.87;;;24.00;72.00;;;;;;3569755;40;20224;-48
2021/05/19 03:52:08;;;;;;;13.70;13.00;;;24.10;72.00;;;;;;3563385;40;20545;-48
2021/05/19 03:54:36;;;;;;;14.87;13.80;;;24.10;71.90;;;;;;3559202;40;21279;-48
2021/05/19 03:57:05;;;;;;;14.67;13.67;;;24.10;71.90;;;;;;3558987;40;21050;-48
2021/05/19 03:59:34;;;;;;;15.20;14.30;;;24.10;71.90;;;;;;3559131;40;20501;-49
2021/05/19 04:02:02;;;;;;;13.77;12.80;;;24.10;71.80;;;;;;3559144;40;20499;-49
2021/05/19 04:04:29;;;;;;;14.27;13.50;;;24.10;71.80;;;;;;3558958;40;20567;-49
2021/05/19 04:06:56;;;;;;;13.90;13.20;;;24.20;71.80;;;;;;3554238;40;20480;-49
2021/05/19 04:09:26;;;;;;;13.87;13.13;;;24.20;71.80;;;;;;3549457;40;20483;-48
2021/05/19 04:11:53;;;;;;;14.67;13.97;;;24.20;71.70;;;;;;3549067;40;20523;-48
2021/05/19 04:14:20;;;;;;;14.90;14.07;;;24.20;71.70;;;;;;3548081;40;20474;-50
2021/05/19 04:16:46;;;;;;;14.80;14.10;;;24.20;71.50;;;;;;3548704;40;20517;-48
2021/05/19 04:19:13;;;;;;;14.77;13.93;;;24.20;71.50;;;;;;3568993;40;20568;-50
2021/05/19 04:21:41;;;;;;;13.70;13.10;;;24.20;71.50;;;;;;3569403;40;20819;-49
2021/05/19 04:24:09;;;;;;;13.43;12.73;;;24.20;72.10;;;;;;3568482;40;20608;-48
2021/05/19 04:26:36;;;;;;;14.13;13.43;;;24.20;71.40;;;;;;3567665;40;20474;-49
2021/05/19 04:29:04;;;;;;;14.07;13.27;;;24.20;71.30;;;;;;3559745;40;20489;-48
2021/05/19 04:31:31;;;;;;;14.53;13.73;;;24.30;71.40;;;;;;3548484;40;20486;-50
2021/05/19 04:33:59;;;;;;;14.17;13.27;;;24.30;71.30;;;;;;3558176;40;20493;-48
2021/05/19 04:36:26;;;;;;;14.70;13.80;;;24.30;71.20;;;;;;3557352;40;20486;-49
2021/05/19 04:38:54;;;;;;;14.43;13.60;;;24.30;71.20;;;;;;3555753;40;20499;-48
2021/05/19 04:41:22;;;;;;;13.33;12.70;;;24.30;71.10;;;;;;3555973;40;20472;-48
2021/05/19 04:43:50;;;;;;;14.40;13.30;;;24.30;71.00;;;;;;3559374;40;20483;-48
2021/05/19 04:46:17;;;;;;;14.13;13.33;;;24.40;71.10;;;;;;3556882;40;20503;-48
2021/05/19 04:48:45;;;;;;;13.30;12.70;;;24.40;70.90;;;;;;3556658;40;20490;-48
2021/05/19 04:51:12;;;;;;;13.60;13.00;;;24.40;71.70;;;;;;3559616;40;20496;-48
2021/05/19 04:53:40;;;;;;;13.17;12.60;;;24.40;70.90;;;;;;3559037;40;21347;-48
2021/05/19 04:56:08;;;;;;;13.43;12.83;;;24.40;70.80;;;;;;3558252;40;20508;-48
2021/05/19 04:58:36;;;;;;;13.37;12.57;;;24.40;70.80;;;;;;3563285;40;20490;-49
2021/05/19 05:01:04;;;;;;;14.00;13.20;;;24.40;70.70;;;;;;3565655;40;20490;-48
2021/05/19 05:03:30;;;;;;;14.27;13.57;;;24.40;70.70;;;;;;3558516;40;20503;-49
2021/05/19 05:05:58;;;;;;;13.43;12.90;;;24.40;70.60;;;;;;3558431;40;20483;-48
2021/05/19 05:08:25;;;;;;;14.43;13.73;;;24.40;71.20;;;;;;3565351;40;20483;-49
2021/05/19 05:10:53;;;;;;;13.83;13.10;;;24.50;70.50;;;;;;3564090;40;20523;-48
2021/05/19 05:13:23;;;;;;;13.53;12.93;;;24.50;70.40;;;;;;3555321;40;20549;-48
2021/05/19 05:15:51;;;;;;;13.43;12.83;;;24.50;70.30;;;;;;3564387;40;20494;-48
2021/05/19 05:18:18;;;;;;;13.82;13.13;;;24.50;70.20;;;;;;3564513;40;20497;-49
2021/05/19 05:20:46;;;;;;;14.30;13.57;;;24.50;70.20;;;;;;3563949;40;20225;-48
2021/05/19 05:23:13;;;;;;;14.10;13.40;;;24.50;70.10;;;;;;3562964;40;20224;-48
2021/05/19 05:25:39;;;;;;;14.77;13.97;;;24.60;70.20;;;;;;3561401;40;20505;-48
2021/05/19 05:28:06;;;;;;;14.27;13.67;;;24.60;70.10;;;;;;3553110;40;20937;-48
2021/05/19 05:30:34;;;;;;;14.63;13.80;;;24.60;70.10;;;;;;3561269;40;20484;-48
2021/05/19 05:33:02;;;;;;;13.87;13.37;;;24.60;70.00;;;;;;3561484;40;20501;-48
2021/05/19 05:35:29;;;;;;;13.60;12.95;;;24.60;70.00;;;;;;3560345;40;20592;-49
2021/05/19 05:37:57;;;;;;;13.53;13.03;;;24.60;70.00;;;;;;3561432;40;20315;-48
2021/05/19 05:40:24;;;;;;;13.65;12.95;;;24.60;69.90;;;;;;3560996;40;20489;-48
2021/05/19 05:42:51;;;;;;;13.73;13.10;;;24.60;69.80;;;;;;3566972;40;20228;-49
2021/05/19 05:45:18;;;;;;;14.10;13.40;;;24.60;69.80;;;;;;3569715;40;20237;-49
2021/05/19 05:47:46;;;;;;;13.80;13.20;;;24.60;69.70;;;;;;3570074;40;20485;-49
2021/05/19 05:50:14;;;;;;;13.43;12.90;;;24.60;69.60;;;;;;3555866;40;20490;-49
2021/05/19 05:52:42;;;;;;;14.00;13.30;;;24.60;69.60;;;;;;3549827;40;20495;-48
2021/05/19 05:55:10;;;;;;;13.13;12.53;;;24.60;69.60;;;;;;3539701;40;20476;-48
2021/05/19 05:57:38;;;;;;;14.50;13.80;;;24.60;69.40;;;;;;3544080;40;20577;-50
2021/05/19 06:00:07;;;;;;;14.57;13.73;;;24.60;69.50;;;;;;3549098;40;20498;-48
2021/05/19 06:02:40;;;;;;;13.50;13.00;;;24.60;69.40;;;;;;3554352;40;20493;-48
2021/05/19 06:05:09;;;;;;;14.20;13.50;;;24.70;69.50;;;;;;3544034;40;20499;-48
2021/05/19 06:07:38;;;;;;;13.43;12.83;;;24.60;69.40;;;;;;3538131;40;20499;-48
2021/05/19 06:10:07;;;;;;;13.17;12.47;;;24.60;69.50;;;;;;3555269;40;20483;-49
2021/05/19 06:12:35;;;;;;;14.10;13.30;;;24.70;69.80;;;;;;3555002;40;20481;-48
2021/05/19 06:15:03;;;;;;;14.00;12.73;;;24.70;69.90;;;;;;3554629;40;20481;-50
2021/05/19 06:17:31;;;;;;;15.10;13.80;;;24.70;70.10;;;;;;3552451;40;20600;-48
2021/05/19 06:19:58;;;;;;;14.10;13.20;;;24.80;70.40;;;;;;3555596;40;20495;-49
2021/05/19 06:22:25;;;;;;;14.30;13.40;;;24.80;70.60;;;;;;3554751;40;20243;-51
2021/05/19 06:24:54;;;;;;;13.85;12.93;;;24.80;70.60;;;;;;3554712;40;20900;-50
2021/05/19 06:27:22;;;;;;;13.50;12.70;;;24.90;70.80;;;;;;3555745;40;20250;-48
2021/05/19 06:29:50;;;;;;;12.87;12.17;;;24.90;70.80;;;;;;3551437;40;20778;-48
2021/05/19 06:32:16;;;;;;;14.30;13.30;;;24.90;70.80;;;;;;3554664;40;20497;-48
2021/05/19 06:34:44;;;;;;;15.75;14.52;;;24.90;70.80;;;;;;3554382;40;20486;-50
2021/05/19 06:37:12;;;;;;;17.03;15.73;;;24.90;70.80;;;;;;3549022;40;21061;-49
2021/05/19 06:39:40;;;;;;;17.27;15.57;;;24.90;70.90;;;;;;3553402;40;20472;-51
2021/05/19 06:42:08;;;;;;;19.03;17.00;;;25.00;71.00;;;;;;3556438;40;20489;-48
2021/05/19 06:44:35;;;;;;;18.83;17.13;;;25.00;71.00;;;;;;3553741;40;21006;-48
2021/05/19 06:47:04;;;;;;;19.47;17.77;;;25.00;70.90;;;;;;3553505;40;21051;-48
2021/05/19 06:49:32;;;;;;;21.00;18.90;;;25.00;71.00;;;;;;3555060;40;20489;-48
2021/05/19 06:51:59;;;;;;;19.67;17.67;;;25.00;70.90;;;;;;3556283;40;20478;-49
2021/05/19 06:54:28;;;;;;;21.58;18.33;;;25.00;71.00;;;;;;3556677;40;20506;-50
2021/05/19 06:56:56;;;;;;;20.85;17.10;;;25.00;71.00;;;;;;3552653;40;20228;-48
2021/05/19 06:59:25;;;;;;;20.70;17.77;;;25.00;71.00;;;;;;3541467;40;20236;-49
2021/05/19 07:01:52;;;;;;;19.93;17.90;;;25.00;71.00;;;;;;3551925;40;20482;-49
2021/05/19 07:04:20;;;;;;;16.97;15.43;;;25.00;71.00;;;;;;3550333;40;20494;-49
2021/05/19 07:06:49;;;;;;;16.83;15.33;;;25.00;71.10;;;;;;3549047;40;20553;-48
2021/05/19 07:09:18;;;;;;;17.07;15.53;;;25.00;71.20;;;;;;3540455;40;20505;-49
2021/05/19 07:11:45;;;;;;;17.47;15.57;;;25.00;71.30;;;;;;3547336;40;20544;-49
2021/05/19 07:14:17;;;;;;;17.20;15.60;;;25.00;71.30;;;;;;3548707;40;20478;-50
2021/05/19 07:16:50;;;;;;;16.07;14.60;;;24.90;71.20;;;;;;3542974;40;20494;-51
2021/05/19 07:19:18;;;;;;;14.83;13.80;;;24.90;71.30;;;;;;3537531;40;20493;-49
2021/05/19 07:21:45;;;;;;;15.97;14.47;;;24.90;71.40;;;;;;3551559;40;20665;-49
2021/05/19 07:24:12;;;;;;;13.87;13.07;;;24.90;71.40;;;;;;3551452;40;20819;-50
2021/05/19 07:26:41;;;;;;;14.87;13.87;;;24.90;71.40;;;;;;3549778;40;20487;-53
2021/05/19 07:29:09;;;;;;;16.33;14.40;;;24.90;71.50;;;;;;3545897;40;20477;-54
2021/05/19 07:31:37;;;;;;;14.63;13.53;;;24.90;71.50;;;;;;3551401;40;20617;-52
2021/05/19 07:34:05;;;;;;;14.17;13.17;;;24.90;71.50;;;;;;3535010;40;20486;-52
2021/05/19 07:36:32;;;;;;;14.87;13.90;;;24.90;71.60;;;;;;3537873;40;20517;-52
2021/05/19 07:39:00;;;;;;;14.60;13.50;;;24.90;71.60;;;;;;3539278;40;20501;-51
2021/05/19 07:41:28;;;;;;;14.77;13.47;;;25.00;71.70;;;;;;3537419;40;20504;-51
2021/05/19 07:43:56;;;;;;;13.30;12.40;;;25.00;71.80;;;;;;3548291;40;20752;-51
2021/05/19 07:46:22;;;;;;;13.73;13.03;;;25.00;71.80;;;;;;3536236;40;20485;-51
2021/05/19 07:48:49;;;;;;;13.77;12.80;;;25.00;71.90;;;;;;3528521;40;20512;-52
2021/05/19 07:51:17;;;;;;;13.97;12.83;;;25.00;72.00;;;;;;3528766;40;20896;-54
2021/05/19 07:53:45;;;;;;;13.23;12.53;;;25.00;72.00;;;;;;3527116;40;20479;-51
2021/05/19 07:56:18;;;;;;;13.13;12.30;;;25.00;72.10;;;;;;3537593;40;20792;-51
2021/05/19 07:58:49;;;;;;;13.60;12.70;;;25.00;72.80;;;;;;3536330;40;20539;-52
2021/05/19 08:01:28;;;;;;;13.00;12.20;;;25.00;72.20;;;;;;3538080;40;20491;-52
2021/05/19 08:03:55;;;;;;;13.07;12.27;;;25.00;72.30;;;;;;3540426;40;20488;-54
2021/05/19 08:06:23;;;;;;;12.60;12.00;;;25.00;72.30;;;;;;3539851;40;20493;-53
2021/05/19 08:08:54;;;;;;;12.73;12.03;;;25.00;72.30;;;;;;3543072;40;20506;-48
2021/05/19 08:11:21;;;;;;;13.57;12.77;;;25.00;72.40;;;;;;3544140;40;20491;-48
2021/05/19 08:13:49;;;;;;;12.13;11.53;;;25.00;72.50;;;;;;3544212;40;20488;-48
2021/05/19 08:16:17;;;;;;;12.73;12.00;;;25.00;72.50;;;;;;3544921;40;21217;-49
2021/05/19 08:18:47;;;;;;;12.20;11.60;;;25.00;72.50;;;;;;3535352;40;20528;-49
2021/05/19 08:21:16;;;;;;;12.40;11.70;;;25.00;72.60;;;;;;3539402;40;21299;-49
2021/05/19 08:23:44;;;;;;;13.17;12.30;;;25.00;72.70;;;;;;3544104;40;20926;-48
2021/05/19 08:26:10;;;;;;;12.30;11.70;;;25.00;72.70;;;;;;3544103;40;20492;-51
2021/05/19 08:28:37;;;;;;;12.05;11.20;;;25.00;72.80;;;;;;3538052;40;20704;-51
2021/05/19 08:31:05;;;;;;;13.83;12.63;;;25.00;72.80;;;;;;3540942;40;20236;-50
2021/05/19 08:33:32;;;;;;;12.90;12.00;;;25.00;72.80;;;;;;3540268;40;20742;-50
2021/05/19 08:36:00;;;;;;;13.03;12.20;;;25.00;72.60;;;;;;3547732;40;20490;-50
2021/05/19 08:38:27;;;;;;;14.02;13.18;;;25.00;72.40;;;;;;3544139;40;20490;-52
2021/05/19 08:40:55;;;;;;;14.10;13.30;;;25.00;72.10;;;;;;3536786;40;20238;-51
2021/05/19 08:43:23;;;;;;;13.90;13.00;;;25.00;71.80;;;;;;3547813;40;20485;-51
2021/05/19 08:45:51;;;;;;;13.03;12.13;;;25.00;71.50;;;;;;3548757;40;20496;-51
2021/05/19 08:48:20;;;;;;;12.73;11.90;;;25.00;71.40;;;;;;3549804;40;20857;-50
2021/05/19 08:50:47;;;;;;;12.57;11.87;;;25.00;71.30;;;;;;3548400;40;20481;-50
2021/05/19 08:53:15;;;;;;;13.17;12.47;;;25.00;70.70;;;;;;3548050;40;20985;-50
2021/05/19 08:55:43;;;;;;;11.90;11.30;;;24.90;70.60;;;;;;3547980;40;20477;-51
2021/05/19 08:58:37;;;;;;;11.77;11.20;;;24.90;70.60;;;;;;3538835;40;20497;-49
2021/05/19 09:01:05;;;;;;;13.30;12.50;;;24.90;68.50;;;;;;3549568;40;20498;-52
2021/05/19 09:03:36;;;;;;;12.53;12.03;;;24.90;66.80;;;;;;3548670;40;20615;-50
2021/05/19 09:06:07;;;;;;;12.60;12.00;;;24.80;66.50;;;;;;3546707;40;20477;-52
2021/05/19 09:08:39;;;;;;;11.80;11.30;;;24.80;64.70;;;;;;3545597;40;20496;-51
2021/05/19 09:11:11;;;;;;;11.87;11.47;;;24.80;65.20;;;;;;3544791;40;20469;-49
2021/05/19 09:13:42;;;;;;;11.20;10.80;;;24.70;64.70;;;;;;3547110;40;20477;-51
2021/05/19 09:16:10;;;;;;;11.90;11.40;;;24.70;65.20;;;;;;3547378;40;20517;-48
2021/05/19 09:18:49;;;;;;;12.00;11.50;;;24.70;65.20;;;;;;3544258;40;20526;-48
2021/05/19 09:21:32;;;;;;;12.23;11.77;;;24.70;66.00;;;;;;3538668;40;20491;-49
2021/05/19 09:23:59;;;;;;;12.55;12.02;;;24.70;66.60;;;;;;3548552;40;20619;-52
2021/05/19 09:26:25;;;;;;;12.90;12.33;;;24.70;66.90;;;;;;3550947;40;20254;-51
2021/05/19 09:28:53;;;;;;;12.53;11.60;;;24.70;67.20;;;;;;3548370;40;20804;-50
2021/05/19 09:31:21;;;;;;;12.47;11.90;;;24.70;67.40;;;;;;3548718;40;20493;-50
2021/05/19 09:33:50;;;;;;;12.70;12.20;;;24.70;67.50;;;;;;3547278;40;20493;-49
2021/05/19 09:36:20;;;;;;;12.80;12.20;;;24.70;67.70;;;;;;3546376;40;20486;-50
2021/05/19 09:38:49;;;;;;;11.70;11.30;;;24.80;68.00;;;;;;3546990;40;20486;-49
2021/05/19 09:41:21;;;;;;;12.50;12.00;;;24.80;68.10;;;;;;3548896;40;20494;-50
2021/05/19 09:43:52;;;;;;;12.30;11.80;;;24.80;68.30;;;;;;3546080;40;20488;-50
2021/05/19 09:46:26;;;;;;;12.25;11.85;;;24.80;68.40;;;;;;3546180;40;21208;-48
2021/05/19 09:49:12;;;;;;;13.23;12.50;;;24.80;68.60;;;;;;3550254;40;20240;-48
2021/05/19 09:51:40;;;;;;;12.30;11.80;;;24.80;68.80;;;;;;3540964;40;20876;-51
2021/05/19 09:54:24;;;;;;;12.00;11.50;;;24.80;68.90;;;;;;3546790;40;20479;-49
2021/05/19 09:56:56;;;;;;;12.02;11.52;;;24.80;69.10;;;;;;3544102;40;20489;-50
2021/05/19 09:59:23;;;;;;;12.47;11.80;;;24.80;69.20;;;;;;3539566;40;20582;-51
2021/05/19 10:01:53;;;;;;;12.63;12.13;;;24.80;69.30;;;;;;3546073;40;20498;-48
2021/05/19 10:04:23;;;;;;;12.80;12.20;;;24.80;69.40;;;;;;3546973;40;20510;-53
2021/05/19 10:06:50;;;;;;;12.80;12.00;;;24.80;69.50;;;;;;3546130;40;20928;-50
2021/05/19 10:09:17;;;;;;;12.03;11.53;;;24.80;69.60;;;;;;3544111;40;20488;-53
2021/05/19 10:11:45;;;;;;;12.80;12.20;;;24.80;69.70;;;;;;3539736;40;20512;-50
2021/05/19 10:14:13;;;;;;;11.63;11.20;;;24.80;69.90;;;;;;3539050;40;20495;-51
2021/05/19 10:16:43;;;;;;;12.67;12.10;;;24.80;70.00;;;;;;3544745;40;20736;-50
2021/05/19 10:19:18;;;;;;;13.20;12.40;;;24.80;70.00;;;;;;3541284;40;20490;-49
2021/05/19 10:21:45;;;;;;;12.87;12.27;;;24.80;70.10;;;;;;3551182;40;20498;-50
2021/05/19 10:24:15;;;;;;;12.17;11.60;;;24.80;70.20;;;;;;3553474;40;20495;-48
2021/05/19 10:27:01;;;;;;;12.10;11.50;;;24.80;70.20;;;;;;3554190;40;20502;-49
2021/05/19 10:30:08;;;;;;;12.23;11.63;;;24.80;70.30;;;;;;3551470;40;20490;-49
2021/05/19 10:32:37;;;;;;;12.15;11.65;;;24.80;70.40;;;;;;3544082;40;20493;-51
2021/05/19 10:35:09;;;;;;;11.57;11.07;;;24.80;70.50;;;;;;3554222;40;20238;-49
2021/05/19 10:37:45;;;;;;;11.93;11.43;;;24.80;70.60;;;;;;3552151;40;20498;-48
2021/05/19 10:40:31;;;;;;;12.47;11.57;;;24.80;70.60;;;;;;3541938;40;21364;-48
2021/05/19 10:43:02;;;;;;;11.97;11.37;;;24.70;70.60;;;;;;3555933;40;20736;-48
2021/05/19 10:45:48;;;;;;;12.43;11.73;;;24.70;70.70;;;;;;3545883;40;20492;-49
2021/05/19 10:48:33;;;;;;;12.33;11.83;;;24.70;70.80;;;;;;3542665;40;20493;-48
2021/05/19 10:51:33;;;;;;;12.53;11.83;;;24.70;70.80;;;;;;3547919;40;20488;-50
2021/05/19 11:00:06;;;;;;;13.13;12.10;;;24.70;70.90;;;;;;3539215;40;20495;-50
2021/05/19 11:03:09;;;;;;;13.10;12.33;;;24.70;71.00;;;;;;3539292;40;20487;-49
2021/05/19 11:05:36;;;;;;;12.97;12.40;;;24.70;71.10;;;;;;3544104;40;20472;-50
2021/05/19 11:08:23;;;;;;;11.80;11.20;;;24.70;71.10;;;;;;3548426;40;21174;-50
2021/05/19 11:10:52;;;;;;;12.70;12.07;;;24.70;71.20;;;;;;3538899;40;20493;-54
2021/05/19 11:13:21;;;;;;;11.70;11.10;;;24.70;71.20;;;;;;3552062;40;20530;-51
2021/05/19 11:16:03;;;;;;;12.40;11.70;;;24.70;71.40;;;;;;3550928;40;20482;-51
2021/05/19 11:21:29;;;;;;;11.40;10.90;;;24.70;71.80;;;;;;3532084;40;20580;-49
2021/05/19 11:24:10;;;;;;;13.13;12.17;;;24.70;71.90;;;;;;3543977;40;20551;-50
2021/05/19 11:26:39;;;;;;;13.07;12.27;;;24.70;72.00;;;;;;3549004;40;20475;-51
2021/05/19 11:29:07;;;;;;;12.60;12.10;;;24.60;71.80;;;;;;3551414;40;20482;-51
2021/05/19 11:31:39;;;;;;;12.07;11.60;;;24.60;71.90;;;;;;3552299;40;20500;-53
2021/05/19 11:34:08;;;;;;;13.03;12.53;;;24.60;72.00;;;;;;3553416;40;20489;-50
2021/05/19 11:36:39;;;;;;;13.40;12.50;;;24.60;72.10;;;;;;3543249;40;20499;-51
2021/05/19 11:39:23;;;;;;;12.77;12.27;;;24.60;72.20;;;;;;3540377;40;20753;-51
2021/05/19 11:41:52;;;;;;;13.93;13.13;;;24.60;72.20;;;;;;3544393;40;21423;-51
2021/05/19 11:44:34;;;;;;;12.67;12.10;;;24.60;72.10;;;;;;3552158;40;21058;-50
2021/05/19 11:47:02;;;;;;;13.13;12.53;;;24.60;72.20;;;;;;3542309;40;20484;-49
2021/05/19 11:49:29;;;;;;;12.97;12.37;;;24.60;72.20;;;;;;3546316;40;20482;-49
2021/05/19 11:51:56;;;;;;;12.93;12.43;;;24.60;72.30;;;;;;3541178;40;20485;-49
2021/05/19 11:54:25;;;;;;;12.70;12.10;;;24.60;72.40;;;;;;3541078;40;20489;-49
2021/05/19 11:56:53;;;;;;;12.63;11.93;;;24.60;72.50;;;;;;3539368;40;20491;-49
2021/05/19 11:59:24;;;;;;;12.70;12.20;;;24.60;72.50;;;;;;3533577;40;20483;-49
2021/05/19 12:01:56;;;;;;;12.83;11.93;;;24.60;72.50;;;;;;3538590;40;20500;-49
2021/05/19 12:04:26;;;;;;;12.00;11.50;;;24.60;72.60;;;;;;3549798;40;20750;-53
2021/05/19 12:06:55;;;;;;;12.50;12.00;;;24.60;72.70;;;;;;3550055;40;20501;-51
2021/05/19 12:09:23;;;;;;;12.83;11.90;;;24.60;72.70;;;;;;3549324;40;21020;-49
2021/05/19 12:11:51;;;;;;;11.67;11.17;;;24.60;72.70;;;;;;3548385;40;20493;-51
2021/05/19 12:14:20;;;;;;;12.40;11.80;;;24.60;72.70;;;;;;3542094;40;20911;-50
2021/05/19 12:16:48;;;;;;;12.63;11.97;;;24.60;72.70;;;;;;3543256;40;20490;-53
2021/05/19 12:19:17;;;;;;;12.30;11.60;;;24.60;72.80;;;;;;3551401;40;20570;-48
2021/05/19 12:21:48;;;;;;;11.33;10.83;;;24.60;72.80;;;;;;3555006;40;20483;-48
2021/05/19 12:24:16;;;;;;;11.97;11.47;;;24.60;72.90;;;;;;3552794;40;20479;-50
2021/05/19 12:26:43;;;;;;;11.80;11.20;;;24.60;72.90;;;;;;3546571;40;20504;-50
2021/05/19 12:29:33;;;;;;;11.80;11.00;;;24.50;72.80;;;;;;3542535;40;20490;-51
2021/05/19 12:32:13;;;;;;;10.88;10.38;;;24.60;73.00;;;;;;3540603;40;21029;-51
2021/05/19 12:34:41;;;;;;;11.85;11.00;;;24.60;73.10;;;;;;3544011;40;20240;-48
2021/05/19 12:37:10;;;;;;;11.07;10.30;;;24.60;73.00;;;;;;3546458;40;20247;-49
2021/05/19 12:39:39;;;;;;;11.57;10.90;;;24.60;73.00;;;;;;3543308;40;20494;-50
2021/05/19 12:42:15;;;;;;;11.43;10.90;;;24.60;73.00;;;;;;3543764;40;20577;-49
2021/05/19 12:44:42;;;;;;;11.37;10.87;;;24.60;73.00;;;;;;3540142;40;20482;-49
2021/05/19 12:47:13;;;;;;;11.67;10.90;;;24.60;73.00;;;;;;3543119;40;20790;-51
2021/05/19 12:49:42;;;;;;;12.43;11.60;;;24.60;72.90;;;;;;3546610;40;20569;-49